Farmington, MO

12:05 AM CDT on July 28, 2016 (GMT -0500)
Farmington Regional | | Change Station

Elev 945 ft 37.76 °N, 90.43 °W | Updated 9 minutes ago

Mostly Cloudy
Mostly Cloudy
74 °F
Feels Like 74 °F
N
5
Wind Variable Wind from SSE

Today
High -- | Low -- °F
--% Chance of Precip.
Yesterday
High -- | Low -- °F
Precip. -- in
Pressure 30.02 in
Visibility 10.0 miles
Clouds Mostly Cloudy 4800 ft
Mostly Cloudy 10000 ft
Dew Point 72 °F
Humidity 93%
Rainfall 0.82 in
Snow Depth Not available.
6:02 AM 8:13 PM
Waning Crescent, 36% visible
METAR KFAM 280456Z AUTO 16004KT 10SM BKN048 BKN100 23/22 A2996 RMK AO2 SLP164 T02330222
Pressure 30.02 in
Visibility 10.0 miles
Clouds Mostly Cloudy 4800 ft
Mostly Cloudy 10000 ft
Dew Point 72 °F
Humidity 93%
Rainfall 0.82 in
Snow Depth Not available.
6:02 AM 8:13 PM
Waning Crescent, 36% visible
METAR KFAM 280456Z AUTO 16004KT 10SM BKN048 BKN100 23/22 A2996 RMK AO2 SLP164 T02330222

10-Day Weather Forecast

Almanac

Astronomy

Jul. 28, 2016 Rise Set
Actual Time
Civil Twilight
Nautical Twilight
Astronomical Twilight
Moon
Length of Visible Light
Length of Day
Tomorrow will be .
, % of the Moon is Illuminated

Today's Extremes

State Highs State Lows

Community

WunderPhotos

Upload Photos

1,928,060 photos uploaded!

WunderBlog® & News

Nearby

Air Quality

  Air Quality AQ Index Pollutant
Not available.

Snow Depth

Station Depth Elevation

Earthquake Activity

City Distance Mag. Time & Date
Minimum magnitude displayed is 2.5.

Coastal Water Temperatures

Place Temperature

Stations

Nearby Weather Stations

Station Location Temp. Windchill Dew Point Humidity Wind Precip. Elev Updated Type
                   

Watches & Warnings

There are currently no watches in effect.